createdAt,value
2022-10-12T00:00:18.309Z,4.00
2022-10-12T00:02:46.215Z,3.90
2022-10-12T00:05:14.129Z,3.90
2022-10-12T00:07:41.977Z,4.70
2022-10-12T00:10:10.357Z,3.90
2022-10-12T00:12:39.642Z,3.90
2022-10-12T00:15:08.122Z,3.80
2022-10-12T00:17:36.213Z,3.80
2022-10-12T00:20:04.364Z,3.80
2022-10-12T00:22:32.543Z,3.80
2022-10-12T00:25:00.400Z,3.70
2022-10-12T00:27:28.271Z,3.70
2022-10-12T00:29:57.462Z,3.70
2022-10-12T00:32:25.367Z,3.60
2022-10-12T00:34:53.279Z,3.60
2022-10-12T00:37:21.144Z,4.00
2022-10-12T00:39:49.824Z,3.80
2022-10-12T00:42:20.499Z,3.60
2022-10-12T00:44:51.583Z,3.50
2022-10-12T00:47:25.621Z,3.50
2022-10-12T00:49:58.519Z,3.40
2022-10-12T00:52:33.058Z,3.40
2022-10-12T00:55:02.135Z,3.40
2022-10-12T00:57:30.830Z,3.40
2022-10-12T01:00:03.454Z,3.30
2022-10-12T01:02:35.382Z,3.30
2022-10-12T01:05:05.326Z,3.30
2022-10-12T01:07:33.164Z,3.90
2022-10-12T01:10:01.083Z,3.10
2022-10-12T01:12:29.386Z,3.10
2022-10-12T01:14:57.307Z,3.10
2022-10-12T01:17:37.928Z,3.10
2022-10-12T01:20:33.569Z,3.00
2022-10-12T01:23:25.682Z,3.00
2022-10-12T01:26:09.179Z,2.90
2022-10-12T01:28:47.580Z,2.90
2022-10-12T01:31:30.062Z,2.80
2022-10-12T01:34:05.241Z,2.80
2022-10-12T01:36:37.232Z,2.80
2022-10-12T01:39:13.605Z,2.80
2022-10-12T01:41:45.400Z,2.80
2022-10-12T01:44:13.258Z,2.70
2022-10-12T01:46:45.282Z,2.70
2022-10-12T01:49:16.503Z,2.70
2022-10-12T01:52:03.286Z,2.60
2022-10-12T01:54:42.846Z,2.60
2022-10-12T01:57:19.230Z,2.60
2022-10-12T01:59:57.110Z,2.60
2022-10-12T02:02:31.432Z,2.60
2022-10-12T02:05:03.717Z,2.60
2022-10-12T02:07:42.155Z,2.50
2022-10-12T02:10:17.506Z,2.50
2022-10-12T02:12:47.587Z,2.50
2022-10-12T02:15:17.963Z,2.60
2022-10-12T02:17:50.608Z,2.60
2022-10-12T02:20:19.462Z,2.50
2022-10-12T02:22:49.861Z,2.50
2022-10-12T02:25:21.618Z,2.50
2022-10-12T02:27:55.167Z,2.50
2022-10-12T02:30:23.480Z,2.50
2022-10-12T02:32:59.994Z,2.40
2022-10-12T02:35:35.176Z,2.40
2022-10-12T02:38:07.922Z,2.40
2022-10-12T02:40:41.236Z,2.40
2022-10-12T02:43:14.873Z,2.40
2022-10-12T02:45:45.894Z,2.40
2022-10-12T02:48:19.587Z,2.30
2022-10-12T02:50:49.783Z,2.30
2022-10-12T02:53:18.482Z,2.30
2022-10-12T02:55:50.603Z,2.20
2022-10-12T02:58:19.267Z,2.20
2022-10-12T03:00:47.625Z,2.20
2022-10-12T03:03:16.851Z,2.10
2022-10-12T03:05:44.828Z,2.10
2022-10-12T03:08:12.867Z,2.10
2022-10-12T03:10:40.727Z,2.10
2022-10-12T03:13:08.594Z,2.10
2022-10-12T03:15:36.453Z,2.10
2022-10-12T03:18:04.474Z,2.00
2022-10-12T03:20:33.668Z,2.00
2022-10-12T03:23:01.525Z,2.00
2022-10-12T03:25:29.445Z,2.00
2022-10-12T03:27:57.264Z,2.00
2022-10-12T03:30:25.107Z,2.00
2022-10-12T03:32:52.986Z,2.00
2022-10-12T03:35:20.828Z,2.00
2022-10-12T03:37:50.097Z,2.00
2022-10-12T03:40:17.997Z,2.00
2022-10-12T03:42:45.818Z,1.90
2022-10-12T03:45:13.663Z,1.90
2022-10-12T03:47:41.676Z,1.90
2022-10-12T03:50:10.526Z,1.90
2022-10-12T03:52:38.385Z,1.80
2022-10-12T03:55:08.688Z,1.80
2022-10-12T03:57:36.834Z,1.80
2022-10-12T04:00:06.123Z,1.90
2022-10-12T04:02:33.994Z,1.90
2022-10-12T04:05:02.012Z,1.90
2022-10-12T04:07:29.831Z,1.90
2022-10-12T04:09:57.651Z,1.90
2022-10-12T04:12:26.959Z,1.80
2022-10-12T04:14:55.290Z,1.80
2022-10-12T04:17:23.191Z,1.80
2022-10-12T04:19:51.072Z,1.80
2022-10-12T04:22:18.930Z,1.80
2022-10-12T04:24:46.780Z,1.80
2022-10-12T04:27:14.603Z,1.70
2022-10-12T04:29:43.832Z,1.70
2022-10-12T04:32:12.674Z,1.70
2022-10-12T04:34:40.895Z,1.70
2022-10-12T04:37:08.752Z,1.70
2022-10-12T04:39:36.602Z,1.70
2022-10-12T04:42:04.603Z,1.80
2022-10-12T04:44:32.619Z,1.70
2022-10-12T04:47:02.037Z,1.70
2022-10-12T04:49:30.072Z,1.70
2022-10-12T04:51:57.898Z,1.70
2022-10-12T04:54:25.850Z,1.80
2022-10-12T04:56:53.727Z,1.80
2022-10-12T04:59:21.615Z,1.80
2022-10-12T05:01:49.613Z,1.80
2022-10-12T05:04:18.951Z,1.80
2022-10-12T05:06:46.950Z,1.80
2022-10-12T05:09:17.025Z,1.80
2022-10-12T05:11:45.490Z,1.80
2022-10-12T05:14:13.493Z,1.70
2022-10-12T05:16:41.484Z,1.70
2022-10-12T05:19:09.485Z,1.70
2022-10-12T05:21:40.146Z,1.70
2022-10-12T05:24:08.318Z,1.70
2022-10-12T05:26:36.190Z,1.70
2022-10-12T05:29:04.046Z,1.70
2022-10-12T05:31:32.035Z,1.60
2022-10-12T05:33:59.862Z,1.60
2022-10-12T05:36:27.754Z,1.60
2022-10-12T05:38:56.979Z,1.60
2022-10-12T05:41:24.825Z,1.60
2022-10-12T05:43:53.266Z,1.60
2022-10-12T05:46:21.359Z,1.60
2022-10-12T05:48:49.207Z,1.60
2022-10-12T05:51:17.084Z,2.00
2022-10-12T05:53:45.104Z,1.60
2022-10-12T05:56:14.322Z,1.70
2022-10-12T05:58:42.227Z,1.70
2022-10-12T06:01:12.550Z,1.70
2022-10-12T06:03:40.402Z,2.80
2022-10-12T06:06:08.634Z,1.70
2022-10-12T06:08:36.962Z,1.70
2022-10-12T06:11:05.000Z,1.80
2022-10-12T06:13:34.235Z,1.80
2022-10-12T06:16:02.087Z,1.80
2022-10-12T06:18:29.958Z,1.90
2022-10-12T06:21:21.461Z,3.30
2022-10-12T06:23:45.706Z,2.00
2022-10-12T06:26:13.634Z,2.00
2022-10-12T06:28:43.453Z,2.10
2022-10-12T06:31:11.535Z,2.10
2022-10-12T06:33:39.393Z,2.20
2022-10-12T06:36:07.573Z,2.20
2022-10-12T06:38:35.488Z,2.30
2022-10-12T06:41:03.347Z,2.40
2022-10-12T06:43:31.162Z,2.40
2022-10-12T06:46:02.693Z,3.50
2022-10-12T06:48:30.923Z,2.50
2022-10-12T06:50:59.334Z,2.60
2022-10-12T06:53:28.773Z,2.60
2022-10-12T06:55:56.723Z,2.70
2022-10-12T06:58:24.609Z,2.80
2022-10-12T07:00:53.587Z,2.90
2022-10-12T07:03:22.799Z,3.00
2022-10-12T07:05:50.683Z,3.00
2022-10-12T07:08:18.804Z,4.40
2022-10-12T07:10:46.639Z,3.20
2022-10-12T07:13:14.499Z,3.30
2022-10-12T07:15:42.343Z,3.40
2022-10-12T07:18:10.147Z,3.50
2022-10-12T07:20:40.377Z,3.60
2022-10-12T07:23:08.209Z,3.70
2022-10-12T07:25:36.074Z,3.80
2022-10-12T07:28:05.354Z,3.90
2022-10-12T07:30:33.587Z,4.10
2022-10-12T07:33:01.419Z,5.30
2022-10-12T07:35:29.274Z,4.30
2022-10-12T07:37:59.025Z,4.40
2022-10-12T07:40:26.988Z,4.50
2022-10-12T07:43:16.817Z,4.60
2022-10-12T07:45:43.531Z,4.80
2022-10-12T07:48:11.439Z,4.90
2022-10-12T07:50:40.061Z,5.00
2022-10-12T07:53:09.354Z,5.20
2022-10-12T07:55:37.298Z,5.30
2022-10-12T07:58:05.515Z,5.40
2022-10-12T08:00:33.946Z,5.60
2022-10-12T08:03:01.821Z,6.80
2022-10-12T08:05:29.727Z,6.20
2022-10-12T08:07:57.582Z,7.10
2022-10-12T08:10:26.785Z,7.40
2022-10-12T08:12:54.594Z,6.70
2022-10-12T08:15:22.447Z,6.80
2022-10-12T08:17:50.629Z,7.00
2022-10-12T08:20:18.635Z,7.20
2022-10-12T08:22:46.535Z,7.40
2022-10-12T08:25:14.588Z,7.60
2022-10-12T08:27:43.763Z,7.80
2022-10-12T08:30:12.819Z,8.00
2022-10-12T08:32:40.676Z,8.10
2022-10-12T08:35:08.757Z,8.30
2022-10-12T08:37:36.723Z,8.50
2022-10-12T08:40:05.266Z,8.70
2022-10-12T08:42:44.409Z,8.90
2022-10-12T08:45:30.549Z,9.10
2022-10-12T08:48:01.680Z,9.30
2022-10-12T08:50:34.328Z,9.50
2022-10-12T08:53:07.928Z,9.80
2022-10-12T08:55:40.605Z,9.90
2022-10-12T08:58:16.595Z,10.10
2022-10-12T09:00:49.710Z,10.30
2022-10-12T09:03:29.407Z,10.60
2022-10-12T09:06:07.387Z,10.70
2022-10-12T09:08:57.609Z,10.90
2022-10-12T09:11:39.798Z,11.10
2022-10-12T09:14:11.019Z,11.20
2022-10-12T09:16:44.311Z,11.40
2022-10-12T09:19:19.266Z,11.60
2022-10-12T09:21:49.183Z,11.80
2022-10-12T09:24:20.374Z,12.00
2022-10-12T09:26:51.723Z,12.20
2022-10-12T09:29:25.802Z,12.40
2022-10-12T09:32:17.710Z,12.60
2022-10-12T09:34:46.987Z,12.80
2022-10-12T09:37:19.522Z,13.00
2022-10-12T09:39:47.723Z,13.20
2022-10-12T09:42:15.630Z,13.60
2022-10-12T09:44:47.287Z,13.50
2022-10-12T09:47:28.549Z,13.70
2022-10-12T09:49:58.764Z,13.90
2022-10-12T09:52:33.521Z,14.10
2022-10-12T09:55:05.234Z,14.40
2022-10-12T09:57:37.261Z,14.60
2022-10-12T10:00:08.737Z,14.60
2022-10-12T10:02:49.007Z,14.70
2022-10-12T10:05:26.488Z,14.70
2022-10-12T10:07:54.385Z,14.80
2022-10-12T10:10:29.768Z,14.80
2022-10-12T10:13:02.807Z,14.90
2022-10-12T10:15:32.854Z,15.10
2022-10-12T10:18:05.447Z,15.40
2022-10-12T10:20:40.008Z,15.60
2022-10-12T10:23:08.150Z,15.80
2022-10-12T10:25:36.391Z,15.80
2022-10-12T10:28:24.622Z,15.90
2022-10-12T10:31:02.820Z,16.10
2022-10-12T10:33:34.465Z,16.00
2022-10-12T10:36:17.054Z,16.10
2022-10-12T10:38:56.645Z,15.90
2022-10-12T10:41:28.094Z,16.00
2022-10-12T10:43:56.618Z,16.00
2022-10-12T10:46:27.111Z,16.10
2022-10-12T10:49:01.156Z,16.10
2022-10-12T10:51:49.069Z,16.10
2022-10-12T10:54:25.587Z,16.20
2022-10-12T10:56:57.481Z,16.30
2022-10-12T10:59:37.092Z,16.30
2022-10-12T11:02:16.386Z,16.70
2022-10-12T11:04:49.571Z,16.30
2022-10-12T11:07:25.040Z,16.30
2022-10-12T11:09:56.640Z,16.30
2022-10-12T11:12:31.267Z,16.70
2022-10-12T11:15:07.637Z,16.50
2022-10-12T11:17:39.172Z,16.50
2022-10-12T11:20:29.510Z,16.60
2022-10-12T11:23:03.484Z,16.60
2022-10-12T11:25:38.873Z,16.60
2022-10-12T11:28:08.755Z,16.70
2022-10-12T11:30:41.822Z,16.50
2022-10-12T11:33:14.973Z,16.70
2022-10-12T11:35:46.384Z,16.60
2022-10-12T11:38:21.103Z,16.80
2022-10-12T11:41:09.214Z,16.70
2022-10-12T11:43:50.615Z,16.60
2022-10-12T11:46:24.520Z,16.50
2022-10-12T11:48:57.336Z,16.50
2022-10-12T11:51:26.615Z,16.40
2022-10-12T11:54:01.775Z,16.40
2022-10-12T11:56:34.319Z,16.60
2022-10-12T11:59:06.491Z,16.70
2022-10-12T12:01:46.623Z,16.90
2022-10-12T12:04:42.658Z,17.10
2022-10-12T12:07:41.970Z,17.20
2022-10-12T12:10:44.870Z,17.30
2022-10-12T12:13:22.811Z,17.30
2022-10-12T12:16:31.679Z,17.50
2022-10-12T12:19:31.727Z,17.30
2022-10-12T12:22:18.054Z,17.10
2022-10-12T12:25:00.387Z,17.20
2022-10-12T12:27:35.985Z,17.30
2022-10-12T12:30:07.210Z,17.40
2022-10-12T12:32:45.776Z,17.20
2022-10-12T12:35:23.628Z,17.10
2022-10-12T12:38:17.164Z,17.10
2022-10-12T12:41:02.506Z,17.10
2022-10-12T12:43:53.050Z,17.00
2022-10-12T12:46:21.468Z,17.00
2022-10-12T12:49:03.442Z,16.90
2022-10-12T12:51:38.710Z,16.80
2022-10-12T12:54:13.866Z,16.90
2022-10-12T12:57:04.690Z,16.80
2022-10-12T12:59:54.827Z,16.90
2022-10-12T13:02:39.462Z,17.20
2022-10-12T13:05:42.614Z,16.90
2022-10-12T13:08:21.192Z,16.90
2022-10-12T13:11:03.051Z,17.10
2022-10-12T13:13:49.585Z,16.90
2022-10-12T13:19:22.455Z,17.40
2022-10-12T13:21:52.533Z,16.90
2022-10-12T13:24:24.503Z,16.90
2022-10-12T13:26:56.735Z,16.80
2022-10-12T13:29:34.445Z,16.80
2022-10-12T13:32:05.522Z,16.80
2022-10-12T13:34:37.924Z,16.80
2022-10-12T13:37:11.672Z,17.00
2022-10-12T13:39:42.943Z,16.70
2022-10-12T13:42:14.387Z,17.30
2022-10-12T13:44:44.860Z,16.80
2022-10-12T13:47:24.266Z,16.80
2022-10-12T13:49:52.304Z,16.80
2022-10-12T13:52:28.373Z,18.20
2022-10-12T13:55:00.428Z,17.20
2022-10-12T13:57:33.162Z,16.80
2022-10-12T14:00:09.771Z,16.80
2022-10-12T14:02:37.723Z,16.80
2022-10-12T14:05:08.291Z,16.70
2022-10-12T14:07:38.583Z,16.80
2022-10-12T14:10:10.182Z,16.70
2022-10-12T14:12:38.879Z,16.60
2022-10-12T14:15:09.343Z,16.60
2022-10-12T14:17:44.706Z,16.60
2022-10-12T14:20:18.242Z,16.50
2022-10-12T14:22:49.366Z,16.50
2022-10-12T14:25:20.034Z,16.60
2022-10-12T14:27:54.197Z,16.50
2022-10-12T14:30:25.487Z,16.40
2022-10-12T14:32:59.515Z,16.40
2022-10-12T14:35:28.965Z,16.40
2022-10-12T14:37:57.805Z,16.30
2022-10-12T14:40:32.784Z,16.20
2022-10-12T14:43:07.784Z,16.20
2022-10-12T14:45:37.478Z,16.10
2022-10-12T14:48:07.064Z,16.10
2022-10-12T14:50:34.990Z,16.00
2022-10-12T14:53:06.548Z,16.10
2022-10-12T14:55:35.636Z,16.20
2022-10-12T14:58:03.676Z,16.00
2022-10-12T15:00:33.071Z,16.00
2022-10-12T15:03:03.564Z,15.90
2022-10-12T15:05:33.442Z,15.90
2022-10-12T15:08:07.147Z,15.90
2022-10-12T15:10:35.006Z,15.80
2022-10-12T15:13:02.926Z,16.10
2022-10-12T15:15:36.051Z,15.70
2022-10-12T15:18:05.845Z,15.70
2022-10-12T15:20:34.615Z,15.60
2022-10-12T15:23:03.175Z,15.60
2022-10-12T15:25:40.035Z,15.40
2022-10-12T15:28:07.979Z,15.40
2022-10-12T15:30:43.435Z,15.30
2022-10-12T15:33:25.909Z,15.30
2022-10-12T15:35:53.763Z,15.20
2022-10-12T15:38:22.381Z,15.10
2022-10-12T15:40:51.778Z,15.00
2022-10-12T15:43:19.868Z,15.00
2022-10-12T15:45:47.731Z,14.90
2022-10-12T15:48:15.614Z,14.90
2022-10-12T15:50:46.555Z,14.80
2022-10-12T15:53:17.667Z,14.70
2022-10-12T15:55:45.511Z,14.70
2022-10-12T15:58:13.402Z,14.60
2022-10-12T16:00:41.372Z,14.50
2022-10-12T16:03:14.863Z,14.40
2022-10-12T16:05:44.132Z,14.30
2022-10-12T16:08:11.980Z,14.60
2022-10-12T16:10:41.503Z,14.20
2022-10-12T16:13:13.845Z,14.10
2022-10-12T16:15:42.689Z,13.80
2022-10-12T16:18:11.920Z,13.60
2022-10-12T16:20:41.346Z,13.70
2022-10-12T16:23:15.407Z,13.50
2022-10-12T16:25:43.307Z,13.80
2022-10-12T16:28:12.251Z,13.00
2022-10-12T16:30:42.191Z,12.90
2022-10-12T16:33:10.111Z,12.70
2022-10-12T16:35:40.615Z,12.60
2022-10-12T16:38:10.235Z,12.50
2022-10-12T16:40:39.953Z,12.30
2022-10-12T16:43:07.924Z,12.30
2022-10-12T16:45:35.868Z,12.00
2022-10-12T16:48:04.044Z,11.90
2022-10-12T16:50:32.037Z,11.80
2022-10-12T16:53:00.227Z,11.60
2022-10-12T16:55:29.470Z,11.50
2022-10-12T16:57:57.357Z,12.40
2022-10-12T17:00:25.218Z,11.20
2022-10-12T17:02:57.310Z,11.10
2022-10-12T17:05:25.421Z,11.00
2022-10-12T17:07:53.293Z,10.90
2022-10-12T17:11:08.664Z,10.80
2022-10-12T17:13:38.960Z,10.70
2022-10-12T17:16:34.728Z,10.60
2022-10-12T17:19:02.911Z,10.40
2022-10-12T17:21:30.758Z,10.30
2022-10-12T17:23:59.428Z,10.20
2022-10-12T17:26:27.768Z,10.10
2022-10-12T17:28:57.019Z,10.10
2022-10-12T17:31:25.918Z,10.00
2022-10-12T17:33:54.172Z,9.90
2022-10-12T17:36:27.200Z,10.00
2022-10-12T17:38:57.441Z,10.80
2022-10-12T17:41:25.839Z,9.60
2022-10-12T17:43:53.762Z,9.50
2022-10-12T17:46:23.048Z,9.80
2022-10-12T17:48:51.020Z,9.40
2022-10-12T17:51:19.588Z,9.30
2022-10-12T17:53:47.492Z,9.20
2022-10-12T17:56:16.315Z,9.20
2022-10-12T17:58:44.275Z,9.10
2022-10-12T18:01:13.831Z,9.00
2022-10-12T18:03:46.187Z,8.90
2022-10-12T18:06:16.342Z,8.90
2022-10-12T18:08:44.970Z,8.80
2022-10-12T18:11:13.258Z,8.70
2022-10-12T18:13:41.183Z,8.70
2022-10-12T18:16:10.950Z,8.60
2022-10-12T18:18:39.362Z,8.60
2022-10-12T18:21:09.797Z,8.50
2022-10-12T18:23:37.792Z,8.50
2022-10-12T18:26:06.547Z,8.40
2022-10-12T18:28:34.870Z,8.40
2022-10-12T18:31:03.126Z,8.30
2022-10-12T18:33:31.381Z,8.30
2022-10-12T18:36:04.255Z,8.30
2022-10-12T18:38:33.960Z,8.20
2022-10-12T18:41:05.324Z,8.20
2022-10-12T18:43:33.760Z,8.40
2022-10-12T18:46:05.245Z,8.20
2022-10-12T18:48:33.197Z,8.20
2022-10-12T18:51:05.901Z,8.10
2022-10-12T18:53:35.935Z,8.20
2022-10-12T18:56:04.935Z,8.20
2022-10-12T18:58:33.110Z,8.20
2022-10-12T19:01:01.027Z,8.20
2022-10-12T19:03:29.467Z,8.20
2022-10-12T19:06:05.369Z,8.90
2022-10-12T19:08:36.422Z,8.20
2022-10-12T19:11:08.064Z,8.30
2022-10-12T19:13:36.363Z,8.30
2022-10-12T19:16:06.119Z,8.30
2022-10-12T19:18:34.094Z,8.30
2022-10-12T19:21:06.463Z,8.40
2022-10-12T19:23:36.668Z,8.40
2022-10-12T19:26:05.927Z,8.50
2022-10-12T19:28:34.168Z,8.50
2022-10-12T19:31:02.442Z,8.50
2022-10-12T19:33:30.530Z,8.60
2022-10-12T19:35:58.385Z,8.50
2022-10-12T19:38:26.359Z,10.50
2022-10-12T19:40:55.587Z,8.50
2022-10-12T19:43:23.443Z,8.50
2022-10-12T19:45:51.503Z,8.50
2022-10-12T19:48:19.741Z,9.90
2022-10-12T19:50:47.635Z,8.50
2022-10-12T19:53:15.710Z,9.40
2022-10-12T19:55:43.544Z,8.40
2022-10-12T19:58:12.764Z,8.40
2022-10-12T20:00:40.665Z,8.40
2022-10-12T20:03:08.553Z,8.40
2022-10-12T20:05:36.479Z,8.40
2022-10-12T20:08:04.371Z,8.30
2022-10-12T20:10:32.223Z,8.30
2022-10-12T20:13:00.093Z,8.50
2022-10-12T20:15:30.423Z,8.30
2022-10-12T20:17:58.283Z,8.20
2022-10-12T20:20:26.234Z,8.20
2022-10-12T20:22:54.092Z,8.10
2022-10-12T20:25:21.935Z,8.10
2022-10-12T20:27:49.808Z,8.00
2022-10-12T20:30:18.015Z,8.00
2022-10-12T20:32:49.687Z,7.90
2022-10-12T20:35:19.787Z,8.00
2022-10-12T20:37:47.626Z,7.80
2022-10-12T20:40:15.757Z,9.80
2022-10-12T20:42:43.743Z,7.70
2022-10-12T20:45:14.203Z,7.70
2022-10-12T20:47:42.143Z,7.60
2022-10-12T20:50:12.891Z,7.60
2022-10-12T20:52:42.871Z,7.60
2022-10-12T20:55:11.688Z,7.50
2022-10-12T20:57:39.610Z,7.50
2022-10-12T21:00:08.572Z,8.90
2022-10-12T21:02:38.155Z,7.50
2022-10-12T21:05:06.863Z,7.50
2022-10-12T21:07:36.975Z,7.40
2022-10-12T21:10:14.446Z,7.50
2022-10-12T21:12:42.320Z,7.50
2022-10-12T21:15:11.339Z,7.50
2022-10-12T21:17:39.267Z,7.50
2022-10-12T21:20:08.151Z,7.50
2022-10-12T21:22:37.472Z,7.60
2022-10-12T21:25:06.046Z,7.60
2022-10-12T21:27:33.900Z,7.60
2022-10-12T21:30:01.759Z,8.40
2022-10-12T21:32:29.696Z,7.70
2022-10-12T21:34:57.532Z,7.70
2022-10-12T21:37:25.433Z,7.80
2022-10-12T21:39:54.761Z,7.70
2022-10-12T21:42:22.599Z,7.70
2022-10-12T21:44:50.739Z,7.70
2022-10-12T21:47:18.629Z,7.70
2022-10-12T21:49:46.520Z,7.60
2022-10-12T21:52:14.409Z,7.60
2022-10-12T21:54:42.317Z,7.60
2022-10-12T21:57:11.596Z,7.60
2022-10-12T21:59:39.437Z,9.10
2022-10-12T22:02:07.292Z,7.60
2022-10-12T22:04:35.222Z,8.10
2022-10-12T22:07:03.120Z,7.60
2022-10-12T22:09:31.012Z,8.90
2022-10-12T22:11:58.908Z,7.50
2022-10-12T22:14:28.104Z,9.40
2022-10-12T22:16:56.003Z,7.50
2022-10-12T22:19:24.047Z,7.50
2022-10-12T22:21:53.276Z,7.40
2022-10-12T22:24:22.113Z,8.40
2022-10-12T22:26:50.130Z,7.40
2022-10-12T22:29:18.014Z,7.30
2022-10-12T22:31:47.270Z,7.30
2022-10-12T22:34:15.199Z,9.20
2022-10-12T22:36:44.042Z,7.60
2022-10-12T22:39:11.930Z,7.30
2022-10-12T22:41:39.798Z,7.20
2022-10-12T22:44:07.697Z,7.20
2022-10-12T22:46:35.585Z,7.20
2022-10-12T22:49:04.824Z,7.20
2022-10-12T22:51:34.496Z,7.20
2022-10-12T22:54:03.467Z,7.10
2022-10-12T22:56:31.383Z,7.10
2022-10-12T22:59:00.849Z,7.10
2022-10-12T23:01:29.574Z,7.00
2022-10-12T23:03:57.559Z,7.00
2022-10-12T23:06:27.148Z,7.00
2022-10-12T23:08:55.188Z,6.90
2022-10-12T23:11:24.959Z,7.00
2022-10-12T23:13:53.775Z,7.00
2022-10-12T23:16:23.422Z,7.00
2022-10-12T23:18:58.815Z,7.90
2022-10-12T23:21:29.916Z,7.00
2022-10-12T23:23:58.709Z,7.10
2022-10-12T23:26:27.843Z,7.10
2022-10-12T23:28:57.366Z,7.20
2022-10-12T23:31:27.479Z,7.20
2022-10-12T23:33:59.622Z,7.30
2022-10-12T23:36:29.367Z,7.60
2022-10-12T23:38:57.463Z,7.40
2022-10-12T23:41:25.394Z,7.40
2022-10-12T23:43:53.306Z,9.10
2022-10-12T23:46:21.198Z,7.50
2022-10-12T23:48:49.099Z,7.50
2022-10-12T23:51:17.080Z,7.50
2022-10-12T23:53:46.518Z,7.60
2022-10-12T23:56:14.683Z,8.70
2022-10-12T23:58:42.590Z,7.60
